Time;durP1;ratioP1;P1;durP2;ratioP2;P2;SDS_P1;SDS_P2;PMS_P1;PMS_P2;Temp;Humidity;BMP_temperature;BMP_pressure;BME280_temperature;BME280_humidity;BME280_pressure;Samples;Min_cycle;Max_cycle;Signal;HPM_P1;HPM_P2
2021/11/10 00:00:16;;;;;;;;;;;20.50;40.20;;;;;;474583;251;1051;-47
2021/11/10 00:02:17;;;;;;;;;;;20.50;40.20;;;;;;474423;246;1412;-47
2021/11/10 00:04:18;;;;;;;;;;;20.40;40.20;;;;;;474199;251;1119;-47
2021/11/10 00:06:20;;;;;;;;;;;20.40;40.30;;;;;;474375;251;1060;-47
2021/11/10 00:08:21;;;;;;;;;;;20.40;40.20;;;;;;474316;251;1059;-47
2021/11/10 00:10:22;;;;;;;;;;;20.50;40.20;;;;;;474474;251;1309;-47
2021/11/10 00:12:24;;;;;;;;;;;20.50;40.30;;;;;;474206;251;2242;-46
2021/11/10 00:14:25;;;;;;;;;;;20.50;40.20;;;;;;474578;251;1073;-47
2021/11/10 00:16:26;;;;;;;;;;;20.50;40.20;;;;;;474397;251;1042;-47
2021/11/10 00:18:28;;;;;;;;;;;20.40;40.20;;;;;;474682;251;1074;-47
2021/11/10 00:20:29;;;;;;;;;;;20.40;40.20;;;;;;474181;251;1078;-47
2021/11/10 00:22:30;;;;;;;;;;;20.40;40.20;;;;;;474569;251;1055;-47
2021/11/10 00:24:32;;;;;;;;;;;20.40;40.20;;;;;;474332;251;1219;-47
2021/11/10 00:26:33;;;;;;;;;;;20.40;40.30;;;;;;474287;251;1174;-47
2021/11/10 00:28:34;;;;;;;;;;;20.40;40.30;;;;;;474679;251;1216;-47
2021/11/10 00:30:35;;;;;;;;;;;20.50;40.20;;;;;;474630;251;1066;-47
2021/11/10 00:32:37;;;;;;;;;;;20.40;40.10;;;;;;474101;251;2201;-47
2021/11/10 00:34:38;;;;;;;;;;;20.40;40.20;;;;;;474360;251;1044;-46
2021/11/10 00:36:39;;;;;;;;;;;20.40;40.30;;;;;;474668;244;1340;-47
2021/11/10 00:38:41;;;;;;;;;;;20.40;40.30;;;;;;474688;251;1152;-46
2021/11/10 00:40:42;;;;;;;;;;;20.40;40.20;;;;;;474465;251;1260;-47
2021/11/10 00:42:43;;;;;;;;;;;20.50;40.20;;;;;;474619;251;1226;-47
2021/11/10 00:44:45;;;;;;;;;;;20.40;40.20;;;;;;474630;251;1113;-47
2021/11/10 00:46:46;;;;;;;;;;;20.40;40.30;;;;;;474348;251;1256;-47
2021/11/10 00:48:47;;;;;;;;;;;20.40;40.30;;;;;;474706;251;1058;-47
2021/11/10 00:50:49;;;;;;;;;;;20.40;40.30;;;;;;474208;251;1170;-46
2021/11/10 00:52:50;;;;;;;;;;;20.40;40.30;;;;;;474445;251;2142;-47
2021/11/10 00:54:51;;;;;;;;;;;20.50;40.20;;;;;;474427;251;1072;-47
2021/11/10 00:56:55;;;;;;;;;;;20.40;40.20;;;;;;474148;251;1199;-47
2021/11/10 00:58:55;;;;;;;;;;;20.50;40.20;;;;;;474493;251;1756;-47
2021/11/10 01:00:56;;;;;;;;;;;20.50;40.30;;;;;;474607;251;1114;-46
2021/11/10 01:02:57;;;;;;;;;;;20.40;40.30;;;;;;474256;251;1302;-47
2021/11/10 01:04:59;;;;;;;;;;;20.40;40.20;;;;;;474309;251;1079;-47
2021/11/10 01:07:00;;;;;;;;;;;20.40;40.20;;;;;;474222;251;1278;-47
2021/11/10 01:09:01;;;;;;;;;;;20.40;40.30;;;;;;474666;251;1068;-46
2021/11/10 01:11:03;;;;;;;;;;;20.40;40.30;;;;;;474484;251;1412;-47
2021/11/10 01:13:04;;;;;;;;;;;20.40;40.20;;;;;;474618;251;2126;-47
2021/11/10 01:15:06;;;;;;;;;;;20.40;40.20;;;;;;474675;251;1042;-47
2021/11/10 01:17:08;;;;;;;;;;;20.40;40.20;;;;;;474290;251;1161;-47
2021/11/10 01:19:08;;;;;;;;;;;20.40;40.30;;;;;;474159;251;1767;-46
2021/11/10 01:21:09;;;;;;;;;;;20.40;40.20;;;;;;474212;244;1244;-47
2021/11/10 01:23:10;;;;;;;;;;;20.40;40.20;;;;;;474250;251;1293;-46
2021/11/10 01:25:12;;;;;;;;;;;20.50;40.20;;;;;;474230;251;1166;-46
2021/11/10 01:27:14;;;;;;;;;;;20.40;40.10;;;;;;474174;251;1299;-47
2021/11/10 01:29:15;;;;;;;;;;;20.40;40.20;;;;;;474635;251;1179;-47
2021/11/10 01:31:16;;;;;;;;;;;20.40;40.20;;;;;;474621;246;1475;-47
2021/11/10 01:33:18;;;;;;;;;;;20.40;40.30;;;;;;474234;251;2118;-47
2021/11/10 01:35:19;;;;;;;;;;;20.40;40.30;;;;;;474729;251;1017;-47
2021/11/10 01:37:20;;;;;;;;;;;20.40;40.30;;;;;;474597;251;1221;-47
2021/11/10 01:39:22;;;;;;;;;;;20.40;40.20;;;;;;474718;251;1081;-47
2021/11/10 01:41:23;;;;;;;;;;;20.40;40.30;;;;;;474177;246;2212;-47
2021/11/10 01:43:24;;;;;;;;;;;20.30;40.30;;;;;;474699;251;1089;-46
2021/11/10 01:45:25;;;;;;;;;;;20.40;40.30;;;;;;474531;251;1047;-47
2021/11/10 01:47:27;;;;;;;;;;;20.40;40.30;;;;;;474346;251;1258;-47
2021/11/10 01:49:28;;;;;;;;;;;20.40;40.30;;;;;;474284;251;1149;-46
2021/11/10 01:51:29;;;;;;;;;;;20.40;40.40;;;;;;474524;246;1375;-47
2021/11/10 01:53:31;;;;;;;;;;;20.40;40.30;;;;;;474717;251;2129;-46
2021/11/10 01:55:32;;;;;;;;;;;20.40;40.30;;;;;;474717;251;1075;-47
2021/11/10 01:57:33;;;;;;;;;;;20.30;40.30;;;;;;474159;251;1883;-46
2021/11/10 01:59:35;;;;;;;;;;;20.30;40.40;;;;;;474641;251;994;-47
2021/11/10 02:01:36;;;;;;;;;;;20.30;40.30;;;;;;474627;251;1311;-46
2021/11/10 02:03:37;;;;;;;;;;;20.40;40.40;;;;;;474491;251;1208;-46
2021/11/10 02:05:39;;;;;;;;;;;20.30;40.30;;;;;;474689;251;1078;-47
2021/11/10 02:07:40;;;;;;;;;;;20.40;40.40;;;;;;474109;251;1573;-46
2021/11/10 02:09:41;;;;;;;;;;;20.30;40.30;;;;;;474648;251;1018;-47
2021/11/10 02:11:43;;;;;;;;;;;20.30;40.30;;;;;;474173;251;1180;-47
2021/11/10 02:13:44;;;;;;;;;;;20.30;40.30;;;;;;474459;251;2121;-46
2021/11/10 02:15:45;;;;;;;;;;;20.40;40.30;;;;;;474237;251;1142;-47
2021/11/10 02:17:47;;;;;;;;;;;20.40;40.30;;;;;;474553;251;1185;-47
2021/11/10 02:19:48;;;;;;;;;;;20.40;40.30;;;;;;474699;251;1216;-47
2021/11/10 02:21:51;;;;;;;;;;;20.40;40.30;;;;;;474119;251;1342;-47
2021/11/10 02:23:51;;;;;;;;;;;20.30;40.20;;;;;;474100;251;2209;-47
2021/11/10 02:25:58;;;;;;;;;;;20.40;40.40;;;;;;474652;251;1155;-47
2021/11/10 02:27:53;;;;;;;;;;;20.40;40.30;;;;;;473955;251;2274;-47
2021/11/10 02:29:55;;;;;;;;;;;20.40;40.30;;;;;;474651;251;1125;-47
2021/11/10 02:31:56;;;;;;;;;;;20.40;40.20;;;;;;474523;251;1342;-47
2021/11/10 02:33:57;;;;;;;;;;;20.40;40.30;;;;;;474689;251;2250;-47
2021/11/10 02:35:59;;;;;;;;;;;20.40;40.30;;;;;;474664;251;1450;-46
2021/11/10 02:38:00;;;;;;;;;;;20.40;40.30;;;;;;474646;251;1094;-47
2021/11/10 02:40:01;;;;;;;;;;;20.30;40.30;;;;;;474664;251;1031;-46
2021/11/10 02:42:03;;;;;;;;;;;20.40;40.30;;;;;;474246;251;1289;-47
2021/11/10 02:44:05;;;;;;;;;;;20.40;40.30;;;;;;474725;251;1086;-47
2021/11/10 02:46:06;;;;;;;;;;;20.40;40.30;;;;;;474195;251;2155;-47
2021/11/10 02:48:09;;;;;;;;;;;20.30;40.20;;;;;;474302;251;1183;-46
2021/11/10 02:50:08;;;;;;;;;;;20.30;40.20;;;;;;474592;251;1922;-47
2021/11/10 02:52:10;;;;;;;;;;;20.40;40.30;;;;;;474659;251;1337;-46
2021/11/10 02:54:11;;;;;;;;;;;20.30;40.20;;;;;;474708;251;2199;-47
2021/11/10 02:56:12;;;;;;;;;;;20.30;40.20;;;;;;474674;251;967;-47
2021/11/10 02:58:14;;;;;;;;;;;20.30;40.20;;;;;;474361;251;1199;-47
2021/11/10 03:00:15;;;;;;;;;;;20.30;40.20;;;;;;474685;251;1137;-47
2021/11/10 03:02:17;;;;;;;;;;;20.30;40.30;;;;;;474598;251;1138;-46
2021/11/10 03:04:18;;;;;;;;;;;20.30;40.30;;;;;;474680;251;1277;-47
2021/11/10 03:06:19;;;;;;;;;;;20.30;40.20;;;;;;474278;251;1210;-47
2021/11/10 03:08:21;;;;;;;;;;;20.40;40.20;;;;;;474722;251;1273;-47
2021/11/10 03:10:22;;;;;;;;;;;20.40;40.10;;;;;;474469;251;1126;-47
2021/11/10 03:12:23;;;;;;;;;;;20.40;40.20;;;;;;474590;251;1274;-47
2021/11/10 03:14:25;;;;;;;;;;;20.40;40.20;;;;;;474707;251;2125;-47
2021/11/10 03:16:26;;;;;;;;;;;20.40;40.10;;;;;;474245;251;1179;-46
2021/11/10 03:18:28;;;;;;;;;;;20.40;40.20;;;;;;474267;251;1104;-47
2021/11/10 03:20:29;;;;;;;;;;;20.40;40.20;;;;;;474692;251;1121;-46
2021/11/10 03:22:30;;;;;;;;;;;20.30;40.20;;;;;;474600;251;1219;-46
2021/11/10 03:24:31;;;;;;;;;;;20.30;40.20;;;;;;474640;251;1066;-47
2021/11/10 03:26:32;;;;;;;;;;;20.40;40.30;;;;;;474203;251;1122;-47
2021/11/10 03:28:34;;;;;;;;;;;20.30;40.20;;;;;;474392;251;1205;-47
2021/11/10 03:30:35;;;;;;;;;;;20.30;40.20;;;;;;474232;251;1063;-46
2021/11/10 03:32:37;;;;;;;;;;;20.30;40.20;;;;;;474315;251;1081;-47
2021/11/10 03:34:38;;;;;;;;;;;20.40;40.20;;;;;;474322;251;2134;-47
2021/11/10 03:36:39;;;;;;;;;;;20.40;40.20;;;;;;474626;251;1267;-47
2021/11/10 03:38:42;;;;;;;;;;;20.30;40.20;;;;;;474466;251;1050;-46
2021/11/10 03:40:43;;;;;;;;;;;20.30;40.20;;;;;;474441;251;1065;-47
2021/11/10 03:42:45;;;;;;;;;;;20.30;40.20;;;;;;474172;251;1211;-47
2021/11/10 03:44:46;;;;;;;;;;;20.40;40.20;;;;;;474615;251;1063;-47
2021/11/10 03:46:47;;;;;;;;;;;20.50;40.00;;;;;;474502;251;1247;-47
2021/11/10 03:48:49;;;;;;;;;;;20.60;39.70;;;;;;474286;251;1065;-47
2021/11/10 03:50:50;;;;;;;;;;;20.80;39.40;;;;;;474687;251;1382;-47
2021/11/10 03:52:51;;;;;;;;;;;20.90;39.10;;;;;;474630;251;1203;-47
2021/11/10 03:54:52;;;;;;;;;;;21.00;38.90;;;;;;474729;251;2330;-47
2021/11/10 03:56:54;;;;;;;;;;;21.10;38.80;;;;;;474255;251;1163;-47
2021/11/10 03:58:55;;;;;;;;;;;21.20;38.60;;;;;;474428;251;1158;-46
2021/11/10 04:00:56;;;;;;;;;;;21.20;38.50;;;;;;474677;251;1237;-47
2021/11/10 04:02:58;;;;;;;;;;;21.30;38.40;;;;;;474277;251;1213;-47
2021/11/10 04:04:59;;;;;;;;;;;21.30;38.30;;;;;;474724;251;1021;-47
2021/11/10 04:07:00;;;;;;;;;;;21.40;38.30;;;;;;474313;251;1576;-47
2021/11/10 04:09:02;;;;;;;;;;;21.40;38.30;;;;;;474306;251;1052;-47
2021/11/10 04:11:04;;;;;;;;;;;21.40;38.10;;;;;;474666;251;1250;-47
2021/11/10 04:13:04;;;;;;;;;;;21.50;38.10;;;;;;474630;251;1320;-47
2021/11/10 04:15:06;;;;;;;;;;;21.50;38.00;;;;;;474690;251;2118;-47
2021/11/10 04:17:09;;;;;;;;;;;21.50;38.00;;;;;;474676;251;1092;-47
2021/11/10 04:19:08;;;;;;;;;;;21.50;37.90;;;;;;474179;251;2084;-47
2021/11/10 04:21:10;;;;;;;;;;;21.50;37.80;;;;;;474693;251;1064;-47
2021/11/10 04:23:11;;;;;;;;;;;21.60;37.80;;;;;;474288;251;1023;-47
2021/11/10 04:25:12;;;;;;;;;;;21.60;37.80;;;;;;474377;251;1113;-47
2021/11/10 04:27:14;;;;;;;;;;;21.60;37.80;;;;;;474735;251;1062;-46
2021/11/10 04:29:15;;;;;;;;;;;21.60;37.80;;;;;;474441;251;1292;-47
2021/11/10 04:31:17;;;;;;;;;;;21.60;37.80;;;;;;474736;251;1396;-46
2021/11/10 04:33:18;;;;;;;;;;;21.70;37.70;;;;;;474267;251;2081;-47
2021/11/10 04:35:19;;;;;;;;;;;21.70;37.70;;;;;;474474;251;2137;-47
2021/11/10 04:37:20;;;;;;;;;;;21.70;37.70;;;;;;474193;251;1194;-47
2021/11/10 04:39:21;;;;;;;;;;;21.70;37.60;;;;;;474670;251;1049;-47
2021/11/10 04:41:24;;;;;;;;;;;21.70;37.60;;;;;;474321;251;1283;-47
2021/11/10 04:43:24;;;;;;;;;;;21.80;37.60;;;;;;474679;251;2364;-47
2021/11/10 04:45:30;;;;;;;;;;;21.80;37.60;;;;;;474716;251;1098;-47
2021/11/10 04:47:27;;;;;;;;;;;21.80;37.60;;;;;;473872;251;2056;-47
2021/11/10 04:49:29;;;;;;;;;;;21.80;37.60;;;;;;474206;251;1062;-47
2021/11/10 04:51:31;;;;;;;;;;;21.80;37.50;;;;;;474076;246;1525;-47
2021/11/10 04:53:31;;;;;;;;;;;21.80;37.50;;;;;;474208;251;2209;-47
2021/11/10 04:55:32;;;;;;;;;;;21.80;37.40;;;;;;474642;251;1516;-47
2021/11/10 04:57:34;;;;;;;;;;;21.90;37.50;;;;;;474257;251;1162;-47
2021/11/10 04:59:35;;;;;;;;;;;21.90;37.40;;;;;;474443;251;1214;-47
2021/11/10 05:01:40;;;;;;;;;;;21.90;37.40;;;;;;474467;246;1214;-47
2021/11/10 05:03:40;;;;;;;;;;;21.90;37.40;;;;;;474469;251;2251;-47
2021/11/10 05:05:41;;;;;;;;;;;21.90;37.40;;;;;;474318;251;1052;-47
2021/11/10 05:07:43;;;;;;;;;;;21.90;37.30;;;;;;474244;251;1338;-47
2021/11/10 05:09:44;;;;;;;;;;;22.00;37.40;;;;;;474633;251;1062;-47
2021/11/10 05:11:45;;;;;;;;;;;22.00;37.40;;;;;;474110;251;1272;-47
2021/11/10 05:13:46;;;;;;;;;;;22.00;37.30;;;;;;474173;251;2197;-47
2021/11/10 05:15:48;;;;;;;;;;;22.00;37.30;;;;;;474611;251;1172;-47
2021/11/10 05:17:49;;;;;;;;;;;22.00;37.30;;;;;;474187;251;1212;-47
2021/11/10 05:19:50;;;;;;;;;;;22.00;37.20;;;;;;474688;251;1069;-47
2021/11/10 05:21:52;;;;;;;;;;;22.00;37.20;;;;;;474187;251;1314;-47
2021/11/10 05:23:53;;;;;;;;;;;22.00;37.20;;;;;;474249;251;1254;-46
2021/11/10 05:25:54;;;;;;;;;;;22.00;37.20;;;;;;474636;251;1103;-46
2021/11/10 05:27:56;;;;;;;;;;;22.00;37.20;;;;;;474066;251;1189;-47
2021/11/10 05:29:57;;;;;;;;;;;22.00;37.20;;;;;;474221;251;1194;-47
2021/11/10 05:31:58;;;;;;;;;;;22.10;37.20;;;;;;473992;251;1637;-47
2021/11/10 05:33:59;;;;;;;;;;;22.00;37.10;;;;;;474579;251;2209;-47
2021/11/10 05:36:01;;;;;;;;;;;22.10;37.20;;;;;;474066;251;1287;-47
2021/11/10 05:38:02;;;;;;;;;;;22.00;37.10;;;;;;474028;251;1636;-47
2021/11/10 05:40:06;;;;;;;;;;;22.10;37.20;;;;;;474564;251;1119;-47
2021/11/10 05:42:05;;;;;;;;;;;22.10;37.20;;;;;;473916;251;1987;-46
2021/11/10 05:44:06;;;;;;;;;;;22.10;37.10;;;;;;474559;251;1114;-47
2021/11/10 05:46:07;;;;;;;;;;;22.10;37.10;;;;;;474485;244;1691;-47
2021/11/10 05:48:09;;;;;;;;;;;22.10;37.10;;;;;;474368;251;1141;-47
2021/11/10 05:50:10;;;;;;;;;;;22.10;37.10;;;;;;473985;251;1089;-47
2021/11/10 05:52:12;;;;;;;;;;;22.10;37.10;;;;;;474084;251;1441;-47
2021/11/10 05:54:13;;;;;;;;;;;22.10;37.10;;;;;;473943;251;2149;-47
2021/11/10 05:56:19;;;;;;;;;;;22.10;37.10;;;;;;474391;251;1376;-46
2021/11/10 05:58:18;;;;;;;;;;;22.10;37.10;;;;;;474352;251;1762;-47
2021/11/10 06:00:20;;;;;;;;;;;22.20;37.10;;;;;;474044;251;1215;-47
2021/11/10 06:02:21;;;;;;;;;;;22.20;37.10;;;;;;474138;251;1501;-47
2021/11/10 06:04:22;;;;;;;;;;;22.20;37.10;;;;;;474515;251;1069;-47
2021/11/10 06:06:24;;;;;;;;;;;22.10;37.00;;;;;;474385;251;1208;-47
2021/11/10 06:08:25;;;;;;;;;;;22.20;37.10;;;;;;473981;251;1562;-47
2021/11/10 06:10:26;;;;;;;;;;;22.20;37.10;;;;;;474153;251;1237;-47
2021/11/10 06:12:27;;;;;;;;;;;22.20;37.10;;;;;;473900;251;1149;-47
2021/11/10 06:14:29;;;;;;;;;;;22.20;37.00;;;;;;474164;251;2191;-47
2021/11/10 06:16:30;;;;;;;;;;;22.20;37.00;;;;;;473831;251;1307;-47
2021/11/10 06:18:31;;;;;;;;;;;22.20;37.10;;;;;;473918;251;1051;-47
2021/11/10 06:20:34;;;;;;;;;;;22.20;37.10;;;;;;474005;251;1083;-47
2021/11/10 06:22:34;;;;;;;;;;;22.20;37.00;;;;;;473890;251;2147;-47
2021/11/10 06:24:35;;;;;;;;;;;22.20;37.00;;;;;;474109;251;1052;-46
2021/11/10 06:26:37;;;;;;;;;;;22.20;37.00;;;;;;473969;251;1318;-47
2021/11/10 06:28:38;;;;;;;;;;;22.30;37.00;;;;;;474167;251;1063;-47
2021/11/10 06:30:39;;;;;;;;;;;22.20;37.00;;;;;;474021;251;1247;-47
2021/11/10 06:32:45;;;;;;;;;;;22.30;37.00;;;;;;473912;251;1255;-47
2021/11/10 06:34:42;;;;;;;;;;;22.30;37.00;;;;;;473824;251;2206;-47
2021/11/10 06:36:43;;;;;;;;;;;22.30;37.00;;;;;;473884;244;1551;-47
2021/11/10 06:38:46;;;;;;;;;;;22.30;37.00;;;;;;473767;251;1096;-47
2021/11/10 06:40:46;;;;;;;;;;;22.20;37.00;;;;;;473762;251;2296;-48
2021/11/10 06:42:47;;;;;;;;;;;22.20;37.00;;;;;;474140;251;1207;-47
2021/11/10 06:44:49;;;;;;;;;;;22.20;37.00;;;;;;473906;251;1090;-47
2021/11/10 06:46:50;;;;;;;;;;;22.30;37.00;;;;;;473962;251;1246;-47
2021/11/10 06:48:51;;;;;;;;;;;22.30;37.00;;;;;;473920;251;1051;-47
2021/11/10 06:50:53;;;;;;;;;;;22.30;37.00;;;;;;473997;251;1204;-47
2021/11/10 06:52:54;;;;;;;;;;;22.30;37.00;;;;;;473947;251;1336;-47
2021/11/10 06:54:55;;;;;;;;;;;22.30;37.00;;;;;;474024;251;2197;-47
2021/11/10 06:56:57;;;;;;;;;;;22.30;36.90;;;;;;473880;251;1205;-47
2021/11/10 06:58:59;;;;;;;;;;;22.30;37.00;;;;;;473747;251;1170;-47
2021/11/10 07:00:59;;;;;;;;;;;22.30;36.90;;;;;;473649;251;2363;-47
2021/11/10 07:03:01;;;;;;;;;;;22.30;36.90;;;;;;473913;251;1081;-47
2021/11/10 07:05:02;;;;;;;;;;;22.30;36.90;;;;;;473760;251;1067;-47
2021/11/10 07:07:03;;;;;;;;;;;22.30;36.90;;;;;;473745;251;1337;-47
2021/11/10 07:09:06;;;;;;;;;;;22.30;36.90;;;;;;473922;251;1144;-47
2021/11/10 07:11:06;;;;;;;;;;;22.40;36.90;;;;;;473804;251;2287;-47
2021/11/10 07:13:08;;;;;;;;;;;22.40;36.80;;;;;;474462;243;1158;-47
2021/11/10 07:15:09;;;;;;;;;;;22.30;36.70;;;;;;473857;251;2189;-47
2021/11/10 07:17:10;;;;;;;;;;;22.40;36.70;;;;;;473679;251;1228;-47
2021/11/10 07:19:12;;;;;;;;;;;22.40;36.80;;;;;;473787;251;1049;-47
2021/11/10 07:21:13;;;;;;;;;;;22.40;36.80;;;;;;473612;251;1059;-47
2021/11/10 07:23:14;;;;;;;;;;;22.40;36.80;;;;;;473617;251;1076;-47
2021/11/10 07:25:16;;;;;;;;;;;22.40;36.70;;;;;;473672;251;1103;-47
2021/11/10 07:27:17;;;;;;;;;;;22.40;36.70;;;;;;473621;251;1222;-47
2021/11/10 07:29:18;;;;;;;;;;;22.40;36.70;;;;;;473707;251;1121;-47
2021/11/10 07:31:20;;;;;;;;;;;22.40;36.60;;;;;;473819;251;1671;-47
2021/11/10 07:33:21;;;;;;;;;;;22.40;36.60;;;;;;473909;251;1057;-47
2021/11/10 07:35:22;;;;;;;;;;;22.50;36.60;;;;;;473670;251;2201;-47
2021/11/10 07:37:24;;;;;;;;;;;22.40;36.50;;;;;;473729;251;1460;-47
2021/11/10 07:39:25;;;;;;;;;;;22.40;36.50;;;;;;473836;251;1165;-46
2021/11/10 07:41:28;;;;;;;;;;;22.50;36.60;;;;;;473740;251;1248;-47
2021/11/10 07:43:28;;;;;;;;;;;22.50;36.50;;;;;;474270;251;2738;-47
2021/11/10 07:45:33;;;;;;;;;;;22.50;36.50;;;;;;473539;251;1225;-46
2021/11/10 07:47:39;;;;;;;;;;;22.50;36.50;;;;;;473659;251;2368;-47
2021/11/10 07:49:34;;;;;;;;;;;22.50;36.40;;;;;;473158;251;1283;-47
2021/11/10 07:51:35;;;;;;;;;;;22.50;36.50;;;;;;473491;251;1402;-47
2021/11/10 07:53:36;;;;;;;;;;;22.50;36.50;;;;;;473539;251;1234;-47
2021/11/10 07:55:38;;;;;;;;;;;22.50;36.50;;;;;;473500;251;2197;-47
2021/11/10 07:57:39;;;;;;;;;;;22.50;36.50;;;;;;473348;251;1133;-47
2021/11/10 07:59:40;;;;;;;;;;;22.50;36.40;;;;;;473332;251;1329;-47
2021/11/10 08:01:42;;;;;;;;;;;22.50;36.40;;;;;;473469;251;1685;-47
2021/11/10 08:03:43;;;;;;;;;;;22.50;36.40;;;;;;473438;251;1116;-47
2021/11/10 08:05:44;;;;;;;;;;;22.50;36.40;;;;;;473365;251;1165;-47
2021/11/10 08:07:46;;;;;;;;;;;22.50;36.40;;;;;;473331;251;1153;-47
2021/11/10 08:09:47;;;;;;;;;;;22.50;36.40;;;;;;473389;251;1096;-47
2021/11/10 08:11:49;;;;;;;;;;;22.50;36.40;;;;;;473349;251;1332;-47
2021/11/10 08:13:50;;;;;;;;;;;22.50;36.40;;;;;;473405;251;1076;-47
2021/11/10 08:15:51;;;;;;;;;;;22.50;36.40;;;;;;473408;251;2200;-47
2021/11/10 08:17:53;;;;;;;;;;;22.50;36.40;;;;;;473260;251;1630;-47
2021/11/10 08:19:54;;;;;;;;;;;22.50;36.40;;;;;;473276;251;1085;-47
2021/11/10 08:21:56;;;;;;;;;;;22.60;36.40;;;;;;473301;246;1339;-47
2021/11/10 08:23:57;;;;;;;;;;;22.50;36.30;;;;;;473866;251;2256;-47
2021/11/10 08:25:58;;;;;;;;;;;22.50;36.30;;;;;;473414;251;1386;-47
2021/11/10 08:28:00;;;;;;;;;;;22.50;36.30;;;;;;473437;251;1405;-47
2021/11/10 08:30:01;;;;;;;;;;;22.60;36.40;;;;;;473309;251;2100;-47
2021/11/10 08:32:02;;;;;;;;;;;22.60;36.30;;;;;;473292;251;1233;-47
2021/11/10 08:34:03;;;;;;;;;;;22.60;36.30;;;;;;473404;251;1239;-47
2021/11/10 08:36:04;;;;;;;;;;;22.60;36.30;;;;;;473355;251;2110;-47
2021/11/10 08:38:06;;;;;;;;;;;22.60;36.30;;;;;;473941;243;1234;-47
2021/11/10 08:40:07;;;;;;;;;;;22.60;36.30;;;;;;473404;251;1100;-47
2021/11/10 08:42:09;;;;;;;;;;;22.60;36.30;;;;;;473224;251;1408;-47
2021/11/10 08:44:10;;;;;;;;;;;22.60;36.30;;;;;;473196;251;1342;-47
2021/11/10 08:46:11;;;;;;;;;;;22.60;36.30;;;;;;473223;251;1311;-47
2021/11/10 08:48:13;;;;;;;;;;;22.60;36.30;;;;;;473410;251;1202;-47
2021/11/10 08:50:14;;;;;;;;;;;22.60;36.30;;;;;;473392;251;1136;-47
2021/11/10 08:52:16;;;;;;;;;;;22.60;36.30;;;;;;473891;251;1403;-47
2021/11/10 08:54:19;;;;;;;;;;;22.70;36.30;;;;;;473401;251;1117;-47
2021/11/10 08:56:18;;;;;;;;;;;22.60;36.30;;;;;;473225;251;2513;-47
2021/11/10 08:58:19;;;;;;;;;;;22.70;36.30;;;;;;473342;251;1195;-47
2021/11/10 09:00:21;;;;;;;;;;;22.60;36.30;;;;;;473205;251;1479;-47
2021/11/10 09:02:22;;;;;;;;;;;22.60;36.30;;;;;;473445;244;1599;-47
2021/11/10 09:04:24;;;;;;;;;;;22.70;36.30;;;;;;473283;244;1239;-47
2021/11/10 09:06:25;;;;;;;;;;;22.70;36.30;;;;;;473586;243;1190;-47
2021/11/10 09:08:26;;;;;;;;;;;22.70;36.30;;;;;;474189;251;1220;-47
2021/11/10 09:10:27;;;;;;;;;;;22.70;36.30;;;;;;473520;251;875;-47
2021/11/10 09:12:29;;;;;;;;;;;22.70;36.30;;;;;;473824;251;1202;-47
2021/11/10 09:14:30;;;;;;;;;;;22.60;36.40;;;;;;473422;251;1113;-47
2021/11/10 09:16:31;;;;;;;;;;;22.60;36.50;;;;;;473584;251;2201;-47
2021/11/10 09:18:33;;;;;;;;;;;22.50;36.60;;;;;;473504;251;1216;-47
2021/11/10 09:20:34;;;;;;;;;;;22.30;36.80;;;;;;473538;251;1329;-47
2021/11/10 09:22:36;;;;;;;;;;;22.10;37.20;;;;;;473447;251;1141;-47
2021/11/10 09:24:37;;;;;;;;;;;22.00;37.40;;;;;;473425;251;1253;-47
2021/11/10 09:26:39;;;;;;;;;;;22.00;37.60;;;;;;473497;251;1343;-46
2021/11/10 09:28:39;;;;;;;;;;;21.90;37.70;;;;;;473359;251;2354;-47
2021/11/10 09:30:41;;;;;;;;;;;21.80;37.80;;;;;;473421;251;1164;-47
2021/11/10 09:32:42;;;;;;;;;;;21.80;37.90;;;;;;473299;251;2049;-47
2021/11/10 09:34:43;;;;;;;;;;;21.70;37.90;;;;;;473288;251;1114;-47
2021/11/10 09:36:47;;;;;;;;;;;21.70;38.00;;;;;;473235;251;2213;-47
2021/11/10 09:38:49;;;;;;;;;;;21.60;38.10;;;;;;473439;251;1059;-47
2021/11/10 09:40:51;;;;;;;;;;;21.60;38.20;;;;;;473467;251;1096;-47
2021/11/10 09:42:52;;;;;;;;;;;21.60;38.30;;;;;;473756;251;1661;-47
2021/11/10 09:44:54;;;;;;;;;;;21.60;38.40;;;;;;473448;251;1144;-47
2021/11/10 09:46:55;;;;;;;;;;;21.50;38.40;;;;;;473199;245;2308;-47
2021/11/10 09:48:58;;;;;;;;;;;21.50;38.40;;;;;;473329;251;1238;-47
2021/11/10 09:50:57;;;;;;;;;;;21.50;38.50;;;;;;473374;251;2210;-46
2021/11/10 09:52:59;;;;;;;;;;;21.50;38.50;;;;;;473595;251;1155;-47
2021/11/10 09:55:00;;;;;;;;;;;21.40;38.50;;;;;;473396;251;1096;-47
2021/11/10 09:57:01;;;;;;;;;;;21.40;38.60;;;;;;473346;251;2114;-47
2021/11/10 09:59:04;;;;;;;;;;;21.40;38.60;;;;;;473946;251;1151;-47
2021/11/10 10:01:05;;;;;;;;;;;21.40;38.60;;;;;;474081;251;1167;-47
2021/11/10 10:03:06;;;;;;;;;;;21.40;38.60;;;;;;474043;251;1096;-46
2021/11/10 10:05:07;;;;;;;;;;;21.40;38.60;;;;;;473461;251;1095;-47
2021/11/10 10:07:09;;;;;;;;;;;21.30;38.60;;;;;;473253;251;1344;-47
2021/11/10 10:09:12;;;;;;;;;;;21.30;38.70;;;;;;473373;251;869;-47
2021/11/10 10:11:11;;;;;;;;;;;21.40;38.70;;;;;;473081;251;1351;-47
2021/11/10 10:13:13;;;;;;;;;;;21.30;38.60;;;;;;472972;251;1158;-47
2021/11/10 10:15:14;;;;;;;;;;;21.30;38.70;;;;;;473054;251;1451;-47
2021/11/10 10:17:15;;;;;;;;;;;21.20;38.80;;;;;;473097;251;2126;-47
2021/11/10 10:19:17;;;;;;;;;;;21.20;38.80;;;;;;473107;251;1213;-47
2021/11/10 10:21:19;;;;;;;;;;;21.20;38.90;;;;;;473293;246;1281;-47
2021/11/10 10:23:19;;;;;;;;;;;21.20;38.90;;;;;;473329;251;2119;-47
2021/11/10 10:25:21;;;;;;;;;;;21.20;38.90;;;;;;473246;251;1416;-46
2021/11/10 10:27:22;;;;;;;;;;;21.10;38.90;;;;;;473451;251;1201;-47
2021/11/10 10:29:23;;;;;;;;;;;21.20;38.90;;;;;;473355;251;1093;-47
2021/11/10 10:31:25;;;;;;;;;;;21.20;38.80;;;;;;473322;251;1250;-47
2021/11/10 10:33:26;;;;;;;;;;;21.20;38.90;;;;;;473245;251;1211;-47
2021/11/10 10:35:28;;;;;;;;;;;21.20;39.00;;;;;;473167;251;1239;-47
2021/11/10 10:37:29;;;;;;;;;;;21.10;38.90;;;;;;473100;251;2205;-46
2021/11/10 10:39:30;;;;;;;;;;;21.20;38.90;;;;;;473250;251;1114;-46
2021/11/10 10:41:32;;;;;;;;;;;21.20;38.80;;;;;;473340;251;1165;-47
2021/11/10 10:43:33;;;;;;;;;;;21.20;38.80;;;;;;473672;251;1072;-47
2021/11/10 10:45:34;;;;;;;;;;;21.20;38.80;;;;;;473279;251;1053;-47
2021/11/10 10:47:36;;;;;;;;;;;21.20;38.70;;;;;;473402;251;1193;-46
2021/11/10 10:49:40;;;;;;;;;;;21.30;38.70;;;;;;473379;251;1200;-47
2021/11/10 10:51:40;;;;;;;;;;;21.20;38.60;;;;;;473676;251;2118;-47
2021/11/10 10:53:42;;;;;;;;;;;21.30;38.60;;;;;;474163;251;1063;-46
2021/11/10 10:55:43;;;;;;;;;;;21.20;38.60;;;;;;473296;251;2188;-46
2021/11/10 10:57:45;;;;;;;;;;;21.20;38.70;;;;;;473104;251;1846;-47
2021/11/10 10:59:46;;;;;;;;;;;21.30;38.60;;;;;;473071;251;1918;-47
2021/11/10 11:01:47;;;;;;;;;;;21.30;38.60;;;;;;472881;251;1096;-47
2021/11/10 11:03:49;;;;;;;;;;;21.30;38.60;;;;;;473139;251;1344;-47
2021/11/10 11:05:50;;;;;;;;;;;21.20;38.50;;;;;;473279;251;1086;-47
2021/11/10 11:07:51;;;;;;;;;;;21.20;38.50;;;;;;473155;251;1167;-47
2021/11/10 11:09:53;;;;;;;;;;;21.20;38.50;;;;;;473315;251;1124;-47
2021/11/10 11:11:58;;;;;;;;;;;21.30;38.60;;;;;;473242;246;1194;-47
2021/11/10 11:14:00;;;;;;;;;;;21.30;38.60;;;;;;473404;251;2330;-47
2021/11/10 11:16:04;;;;;;;;;;;21.30;38.50;;;;;;473220;251;2201;-47
2021/11/10 11:18:03;;;;;;;;;;;21.30;38.40;;;;;;473031;251;1699;-47
2021/11/10 11:20:05;;;;;;;;;;;21.30;38.50;;;;;;473185;251;1222;-47
2021/11/10 11:22:07;;;;;;;;;;;21.30;38.50;;;;;;473351;251;1103;-47
2021/11/10 11:24:08;;;;;;;;;;;21.30;38.50;;;;;;473320;251;1145;-47
2021/11/10 11:26:09;;;;;;;;;;;21.30;38.50;;;;;;473333;251;1403;-47
2021/11/10 11:28:13;;;;;;;;;;;21.20;38.50;;;;;;473374;251;1061;-47
2021/11/10 11:30:12;;;;;;;;;;;21.30;38.60;;;;;;473358;251;2253;-46
2021/11/10 11:32:13;;;;;;;;;;;21.30;38.60;;;;;;473293;251;1259;-47
2021/11/10 11:34:15;;;;;;;;;;;21.30;38.60;;;;;;473178;251;1315;-47
2021/11/10 11:36:16;;;;;;;;;;;21.20;38.50;;;;;;473312;251;2130;-47
2021/11/10 11:38:17;;;;;;;;;;;21.30;38.60;;;;;;473529;251;1087;-47
2021/11/10 11:40:19;;;;;;;;;;;21.20;38.50;;;;;;473422;251;1093;-47
2021/11/10 11:42:20;;;;;;;;;;;21.30;38.60;;;;;;473305;251;2016;-47
2021/11/10 11:44:22;;;;;;;;;;;21.20;38.50;;;;;;473153;251;1251;-47
2021/11/10 11:46:23;;;;;;;;;;;21.20;38.60;;;;;;473150;251;1183;-47
2021/11/10 11:48:24;;;;;;;;;;;21.20;38.50;;;;;;473342;251;1216;-47
2021/11/10 11:50:26;;;;;;;;;;;21.20;38.50;;;;;;473352;251;1222;-47
2021/11/10 11:52:28;;;;;;;;;;;21.20;38.60;;;;;;473247;251;1224;-47
2021/11/10 11:54:29;;;;;;;;;;;21.20;38.50;;;;;;473288;251;1157;-47
2021/11/10 11:56:30;;;;;;;;;;;21.30;38.60;;;;;;473444;251;2118;-47